Maimiti — PBIJ — position and weather

sailwx.info

Track history (hours):
 
Tides and Currents Weather Stations Pressure Air Temp Water Temp Dewpoint Dewpoint Depression Visibility Wind Speed Wind Dir Waves Ship Positions

Maimiti

Last reported at 2018-Feb-22 07:00 UTC. Time now 2018-Feb-22 07:20 UTC.
Position N 51°27' E 003°43'.

Length 35 m; draft 6.7 m.

Type: Tug. MMSI: 244850959.

Date/timePositionNaut miles runAvg speedWind from/ knotsBaromVisibWave heightAir tempDewpointWater temp
2018-Feb-22 07:00N 51°27' E 003°43'1 2.4
2018-Feb-22 06:30N 51°28' E 003°41'1 1.7
2018-Feb-22 06:00N 51°27' E 003°40'2 3.5
2018-Feb-22 05:30N 51°26' E 003°38'2 3.4
2018-Feb-22 05:00N 51°26' E 003°35'1 1.2
2018-Feb-22 04:30N 51°25' E 003°34'0 0.1
2018-Feb-22 04:00N 51°25' E 003°34'0 0.2
2018-Feb-22 03:30N 51°25' E 003°34'1 2.4
2018-Feb-22 03:00N 51°25' E 003°32'2 4.3
2018-Feb-22 02:30N 51°25' E 003°29'2 4.2
2018-Feb-22 02:00N 51°25' E 003°26'2 3.9
2018-Feb-22 01:30N 51°24' E 003°23'2 4.1
2018-Feb-22 01:00N 51°24' E 003°19'2 4.2
2018-Feb-22 00:30N 51°24' E 003°16'2 3.6
2018-Feb-22 00:00N 51°24' E 003°13'1 2.9
2018-Feb-21 23:30N 51°24' E 003°11'1 2.6
2018-Feb-21 23:00N 51°24' E 003°09'1 2.6
2018-Feb-21 22:31N 51°24' E 003°07'1 2.3
2018-Feb-21 22:00N 51°24' E 003°05'1 2.5
2018-Feb-21 21:31N 51°24' E 003°03'1 2.7
2018-Feb-21 21:00N 51°25' E 003°01'1 2.8
2018-Feb-21 20:31N 51°25' E 002°59'1 2.6
2018-Feb-21 19:59N 51°26' E 002°57'1 2.8
2018-Feb-21 19:30N 51°27' E 002°56'2 3.0
2018-Feb-21 18:59N 51°28' E 002°58'1 2.8
2018-Feb-21 18:30N 51°29' E 002°60'1 1.8
2018-Feb-21 18:00N 51°29' E 003°01'4 8.0
2018-Feb-21 17:30N 51°25' E 003°02'5 9.3
2018-Feb-21 17:01N 51°24' E 003°10'5 9.0
2018-Feb-21 16:30N 51°25' E 003°17'9 7.6
2018-Feb-21 15:21N 51°25' E 003°31'2 7.1
2018-Feb-21 15:00N 51°26' E 003°35'4 7.5
2018-Feb-21 14:30N 51°27' E 003°41'0 0.4
2018-Feb-21 13:59N 51°27' E 003°41'0 0.4
2018-Feb-21 13:31N 51°28' E 003°40'0 0.0
2018-Feb-21 13:00N 51°28' E 003°40'0 0.0
2018-Feb-21 12:31N 51°28' E 003°40'0 0.0
2018-Feb-21 12:00N 51°28' E 003°40'0 0.0
2018-Feb-21 11:30N 51°28' E 003°40'0 0.0
2018-Feb-21 11:00N 51°28' E 003°40'0 0.0
2018-Feb-21 10:30N 51°28' E 003°40'0 0.0
2018-Feb-21 10:00N 51°28' E 003°40'0 0.0
2018-Feb-21 09:30N 51°28' E 003°40'0 0.0
2018-Feb-21 09:00N 51°28' E 003°40'0 0.0
2018-Feb-21 08:28N 51°28' E 003°40'0 0.0
2018-Feb-21 08:00N 51°28' E 003°40'0 0.0
2018-Feb-21 07:30N 51°28' E 003°40'0 0.1
2018-Feb-21 07:00N 51°28' E 003°40'0 0.1
2018-Feb-21 06:31N 51°28' E 003°40'0 0.0
2018-Feb-21 06:00N 51°28' E 003°40'0 0.0
2018-Feb-21 05:30N 51°28' E 003°40'0 0.0
2018-Feb-21 05:00N 51°28' E 003°40'0 0.0
2018-Feb-21 04:30N 51°28' E 003°40'0 0.0
2018-Feb-21 04:00N 51°28' E 003°40'0 0.0
2018-Feb-21 03:30N 51°28' E 003°40'0 0.0
2018-Feb-21 03:00N 51°28' E 003°40'0 0.0
2018-Feb-21 02:30N 51°28' E 003°40'0 0.0
2018-Feb-21 02:00N 51°28' E 003°40'1 1.7
2018-Feb-21 01:30N 51°27' E 003°42'1 1.7
2018-Feb-21 01:00N 51°27' E 003°43'1 1.9
2018-Feb-21 00:27N 51°27' E 003°41'1 2.3
2018-Feb-20 23:54N 51°29' E 003°42'2 3.8
2018-Feb-20 23:30N 51°28' E 003°40'0 0.0
2018-Feb-20 23:00N 51°28' E 003°40'0 0.0
2018-Feb-20 22:30N 51°28' E 003°40'0 0.2
2018-Feb-20 22:00N 51°28' E 003°41'0 0.0
2018-Feb-20 21:30N 51°28' E 003°41'0 0.1
2018-Feb-20 21:00N 51°28' E 003°40'1 2.4
2018-Feb-20 20:30N 51°27' E 003°42'1 1.8
2018-Feb-20 20:00N 51°27' E 003°44'1 1.2
2018-Feb-20 19:30N 51°27' E 003°43'0 0.0
2018-Feb-20 18:59N 51°27' E 003°43'0 0.0
2018-Feb-20 18:29N 51°27' E 003°43'0 0.0
2018-Feb-20 17:58N 51°27' E 003°43'0 0.0
2018-Feb-20 17:21N 51°27' E 003°43'1 1.8
2018-Feb-20 17:00N 51°27' E 003°42'1 1.1
2018-Feb-20 16:30N 51°27' E 003°42'1 2.2
2018-Feb-20 16:00N 51°28' E 003°41'0 0.3
2018-Feb-20 15:30N 51°27' E 003°41'0 0.1
2018-Feb-20 15:00N 51°27' E 003°41'0 0.4
2018-Feb-20 14:30N 51°28' E 003°40'0 0.0
2018-Feb-20 13:58N 51°28' E 003°40'0 0.0
2018-Feb-20 13:30N 51°28' E 003°40'0 0.1
2018-Feb-20 13:01N 51°28' E 003°40'0 0.0
2018-Feb-20 12:30N 51°28' E 003°40'0 0.0
2018-Feb-20 11:59N 51°28' E 003°40'3 6.4
2018-Feb-20 11:30N 51°25' E 003°43'1 1.6
2018-Feb-20 11:00N 51°24' E 003°44'2 4.2
2018-Feb-20 10:30N 51°26' E 003°41'2 3.9
2018-Feb-20 10:00N 51°28' E 003°40'0 0.0
2018-Feb-20 09:30N 51°28' E 003°40'0 0.0
2018-Feb-20 09:00N 51°28' E 003°40'0 0.0
2018-Feb-20 08:31N 51°28' E 003°40'0 0.0
2018-Feb-20 08:00N 51°28' E 003°40'0 0.0
2018-Feb-20 07:29N 51°28' E 003°40'0 0.1
2018-Feb-20 07:00N 51°28' E 003°40'0 0.1
2018-Feb-20 06:30N 51°28' E 003°40'0 0.0
2018-Feb-20 06:00N 51°28' E 003°40'0 0.0
2018-Feb-20 05:30N 51°28' E 003°40'0 0.0
2018-Feb-20 05:00N 51°28' E 003°40'0 0.0
2018-Feb-20 04:30N 51°28' E 003°40'0 0.0
2018-Feb-20 04:00N 51°28' E 003°40'0 0.0
2018-Feb-20 03:30N 51°28' E 003°40'0 0.1
2018-Feb-20 03:01N 51°28' E 003°40'0 0.1
2018-Feb-20 02:30N 51°28' E 003°40'0 0.0
2018-Feb-20 02:00N 51°28' E 003°40'0 0.0
2018-Feb-20 01:30N 51°28' E 003°40'0 0.0
2018-Feb-20 01:00N 51°28' E 003°40'0 0.0
2018-Feb-20 00:30N 51°28' E 003°40'0 0.0
2018-Feb-20 00:00N 51°28' E 003°40'0 0.0
2018-Feb-19 23:29N 51°28' E 003°40'0 0.0
2018-Feb-19 22:57N 51°28' E 003°40'0 0.0
2018-Feb-19 22:30N 51°28' E 003°40'1 3.0
2018-Feb-19 22:01N 51°27' E 003°42'1 1.6
2018-Feb-19 21:30N 51°27' E 003°42'3 5.3
2018-Feb-19 21:01N 51°25' E 003°43'5 9.4
2018-Feb-19 20:31N 51°21' E 003°47'3 5.2
2018-Feb-19 20:01N 51°21' E 003°52'2 3.4
2018-Feb-19 19:30N 51°20' E 003°49'0 0.0
2018-Feb-19 18:59N 51°20' E 003°49'0 0.0
2018-Feb-19 18:30N 51°20' E 003°49'0 0.0
2018-Feb-19 18:00N 51°20' E 003°49'0 0.0
2018-Feb-19 17:30N 51°20' E 003°49'0 0.0
2018-Feb-19 17:01N 51°20' E 003°49'0 0.0
2018-Feb-19 16:30N 51°20' E 003°49'0 0.0
2018-Feb-19 16:00N 51°20' E 003°49'0 0.0
2018-Feb-19 15:31N 51°20' E 003°49'0 0.0
2018-Feb-19 15:00N 51°20' E 003°49'0 0.0
2018-Feb-19 14:30N 51°20' E 003°49'0 0.0
2018-Feb-19 14:01N 51°20' E 003°49'0 0.0
2018-Feb-19 13:30N 51°20' E 003°49'0 0.0
2018-Feb-19 13:00N 51°20' E 003°49'0 0.0
2018-Feb-19 12:30N 51°20' E 003°49'0 0.0
2018-Feb-19 12:00N 51°20' E 003°49'0 0.0
2018-Feb-19 11:30N 51°20' E 003°49'0 0.0
2018-Feb-19 11:01N 51°20' E 003°49'0 0.0
2018-Feb-19 10:30N 51°20' E 003°49'0 0.0
2018-Feb-19 10:00N 51°20' E 003°49'0 0.0
2018-Feb-19 09:30N 51°20' E 003°49'0 0.0
2018-Feb-19 09:00N 51°20' E 003°49'0 0.0
2018-Feb-19 08:30N 51°20' E 003°49'0 0.0
2018-Feb-19 08:00N 51°20' E 003°49'0 0.0
2018-Feb-19 07:30N 51°20' E 003°49'0 0.0
2018-Feb-19 07:00N 51°20' E 003°49'0 0.0
2018-Feb-19 06:30N 51°20' E 003°49'0 0.0
2018-Feb-19 06:01N 51°20' E 003°49'0 0.0
2018-Feb-19 05:30N 51°20' E 003°49'0 0.0
2018-Feb-19 05:00N 51°20' E 003°49'0 0.0
2018-Feb-19 04:30N 51°20' E 003°49'0 0.0
2018-Feb-19 04:01N 51°20' E 003°49'1 1.7
2018-Feb-19 03:30N 51°21' E 003°50'1 2.2
2018-Feb-19 02:59N 51°21' E 003°52'0 0.1
2018-Feb-19 02:30N 51°21' E 003°52'0 0.1
2018-Feb-19 02:01N 51°21' E 003°52'0 0.0
2018-Feb-19 01:30N 51°21' E 003°52'0 0.0
2018-Feb-19 01:01N 51°21' E 003°52'0 0.0
2018-Feb-19 00:30N 51°21' E 003°52'0 0.0
2018-Feb-19 00:00N 51°21' E 003°52'0 0.2
2018-Feb-18 23:30N 51°21' E 003°52'0 0.2
2018-Feb-18 23:00N 51°21' E 003°52'0 0.0
2018-Feb-18 22:31N 51°21' E 003°52'0 0.1
2018-Feb-18 22:00N 51°21' E 003°52'0 0.0
2018-Feb-18 21:30N 51°21' E 003°52'0 0.1
2018-Feb-18 21:00N 51°21' E 003°52'0 0.0
2018-Feb-18 20:30N 51°21' E 003°52'0 0.1
2018-Feb-18 20:00N 51°21' E 003°52'0 0.2
2018-Feb-18 19:30N 51°21' E 003°52'0 0.1
2018-Feb-18 19:00N 51°21' E 003°52'3 5.5
2018-Feb-18 18:31N 51°21' E 003°47'4 7.7
2018-Feb-18 17:58N 51°24' E 003°43'4 5.3
2018-Feb-18 17:17N 51°27' E 003°41'1 4.9
2018-Feb-18 17:00N 51°27' E 003°42'0 0.4
2018-Feb-18 16:29N 51°27' E 003°42'1 1.4
2018-Feb-18 15:46N 51°28' E 003°41'1 2.8
2018-Feb-18 15:30N 51°27' E 003°40'0 0.2
2018-Feb-18 14:48N 51°27' E 003°40'1 4.1
2018-Feb-18 14:30N 51°28' E 003°42'1 2.7
2018-Feb-18 13:58N 51°27' E 003°40'4 8.0
2018-Feb-18 13:30N 51°24' E 003°43'4 8.9
2018-Feb-18 13:00N 51°21' E 003°49'1 2.6
2018-Feb-18 12:30N 51°20' E 003°49'2 3.2
2018-Feb-18 12:00N 51°18' E 003°50'3 6.1
2018-Feb-18 11:30N 51°15' E 003°49'4 6.2
2018-Feb-18 10:49N 51°11' E 003°48'2 6.5
2018-Feb-18 10:30N 51°09' E 003°47'0 0.3
2018-Feb-18 09:54N 51°09' E 003°47'0 0.0
2018-Feb-18 09:10N 51°09' E 003°47'0 0.0
2018-Feb-18 08:56N 51°09' E 003°47'0 0.0
2018-Feb-18 08:25N 51°09' E 003°47'0 0.0
2018-Feb-18 07:56N 51°09' E 003°47'0 0.0
2018-Feb-18 05:40N 51°09' E 003°47'0 0.0
2018-Feb-18 05:30N 51°09' E 003°47'0 0.0
2018-Feb-18 03:09N 51°09' E 003°47'0 0.5
2018-Feb-18 03:00N 51°09' E 003°47'1 1.9
2018-Feb-18 02:27N 51°10' E 003°48'3 5.8
2018-Feb-18 01:59N 51°13' E 003°48'3 6.2
2018-Feb-18 01:30N 51°16' E 003°50'3 5.8
2018-Feb-18 01:00N 51°19' E 003°50'1 2.6
2018-Feb-18 00:30N 51°20' E 003°49'0 0.9
2018-Feb-18 00:00N 51°20' E 003°49'2 3.6
2018-Feb-17 23:30N 51°21' E 003°47'2 3.3
2018-Feb-17 23:00N 51°21' E 003°49'0 0.6
2018-Feb-17 22:30N 51°20' E 003°49'0 0.0
2018-Feb-17 22:00N 51°20' E 003°49'0 0.0
2018-Feb-17 21:30N 51°20' E 003°49'0 0.0
2018-Feb-17 21:00N 51°20' E 003°49'0 0.0
2018-Feb-17 20:30N 51°20' E 003°49'0 0.0
2018-Feb-17 20:00N 51°20' E 003°49'0 0.0
2018-Feb-17 19:30N 51°20' E 003°49'0 0.0
2018-Feb-17 19:00N 51°20' E 003°49'0 0.0
2018-Feb-17 18:30N 51°20' E 003°49'0 0.0
2018-Feb-17 18:00N 51°20' E 003°49'0 0.0
2018-Feb-17 17:30N 51°20' E 003°49'0 0.0
2018-Feb-17 17:00N 51°20' E 003°49'0 0.0
2018-Feb-17 16:30N 51°20' E 003°49'0 0.0
2018-Feb-17 16:00N 51°20' E 003°49'2 3.9
2018-Feb-17 15:30N 51°20' E 003°46'0 0.3
2018-Feb-17 15:00N 51°21' E 003°46'2 3.3
2018-Feb-17 14:29N 51°22' E 003°44'3 7.1
2018-Feb-17 14:00N 51°20' E 003°49'0 0.0
2018-Feb-17 13:30N 51°20' E 003°49'0 0.0
2018-Feb-17 13:00N 51°20' E 003°49'0 0.0
2018-Feb-17 12:30N 51°20' E 003°49'0 0.0
2018-Feb-17 12:00N 51°20' E 003°49'0 0.0
2018-Feb-17 11:30N 51°20' E 003°49'0 0.0
2018-Feb-17 11:00N 51°20' E 003°49'0 0.0
2018-Feb-17 10:30N 51°20' E 003°49'0 0.3
2018-Feb-17 10:00N 51°20' E 003°49'1 1.1
2018-Feb-17 09:30N 51°20' E 003°49'1 2.0
2018-Feb-17 09:00N 51°19' E 003°50'3 6.2
2018-Feb-17 08:30N 51°16' E 003°50'3 6.8
2018-Feb-17 08:00N 51°12' E 003°48'3 5.6
2018-Feb-17 07:31N 51°10' E 003°47'1 1.8
2018-Feb-17 07:00N 51°11' E 003°48'2 3.4
2018-Feb-17 06:30N 51°12' E 003°48'4 7.6
2018-Feb-17 06:01N 51°16' E 003°50'4 7.5
2018-Feb-17 05:31N 51°20' E 003°49'1 1.5
2018-Feb-17 05:00N 51°20' E 003°49'0 0.0
2018-Feb-17 04:30N 51°20' E 003°49'0 0.0
2018-Feb-17 04:00N 51°20' E 003°49'0 0.0
2018-Feb-17 03:31N 51°20' E 003°49'0 0.0
2018-Feb-17 03:01N 51°20' E 003°49'0 0.0
2018-Feb-17 02:31N 51°20' E 003°49'0 0.0
2018-Feb-17 02:01N 51°20' E 003°49'0 0.0
2018-Feb-17 01:30N 51°20' E 003°49'0 0.0
2018-Feb-17 01:00N 51°20' E 003°49'0 0.0
2018-Feb-17 00:31N 51°20' E 003°49'0 0.0
2018-Feb-17 00:01N 51°20' E 003°49'0 0.0
2018-Feb-16 23:31N 51°20' E 003°49'0 0.0
2018-Feb-16 23:00N 51°20' E 003°49'0 0.0
2018-Feb-16 22:31N 51°20' E 003°49'0 0.0
2018-Feb-16 22:01N 51°20' E 003°49'0 0.0
2018-Feb-16 21:30N 51°20' E 003°49'0 0.0
2018-Feb-16 21:00N 51°20' E 003°49'0 0.0
2018-Feb-16 20:31N 51°20' E 003°49'0 0.0
2018-Feb-16 20:00N 51°20' E 003°49'0 0.0
2018-Feb-16 19:30N 51°20' E 003°49'0 0.0
2018-Feb-16 19:00N 51°20' E 003°49'0 0.0
2018-Feb-16 18:31N 51°20' E 003°49'2 3.1
2018-Feb-16 18:01N 51°21' E 003°47'2 4.8
2018-Feb-16 17:31N 51°22' E 003°44'3 5.5
2018-Feb-16 16:59N 51°25' E 003°42'3 5.4
2018-Feb-16 16:29N 51°28' E 003°40'0 0.1
2018-Feb-16 16:00N 51°28' E 003°40'0 0.0
2018-Feb-16 15:30N 51°28' E 003°40'0 0.0
2018-Feb-16 15:00N 51°28' E 003°40'0 0.1
2018-Feb-16 14:30N 51°28' E 003°40'0 0.1
2018-Feb-16 14:00N 51°28' E 003°40'0 0.0
2018-Feb-16 13:30N 51°28' E 003°40'0 0.0
2018-Feb-16 13:00N 51°28' E 003°40'0 0.0
2018-Feb-16 12:31N 51°28' E 003°40'0 0.0
2018-Feb-16 12:00N 51°28' E 003°40'0 0.0
2018-Feb-16 11:30N 51°28' E 003°40'0 0.0
2018-Feb-16 11:00N 51°28' E 003°40'0 0.0
2018-Feb-16 10:20N 51°28' E 003°40'0 0.0
2018-Feb-16 09:53N 51°28' E 003°40'0 0.0
2018-Feb-16 09:31N 51°28' E 003°40'0 0.1
2018-Feb-16 09:00N 51°28' E 003°40'0 0.0
2018-Feb-16 08:30N 51°28' E 003°40'0 0.0
2018-Feb-16 07:59N 51°28' E 003°40'0 0.0
2018-Feb-16 07:29N 51°28' E 003°40'0 0.0
2018-Feb-16 07:01N 51°28' E 003°40'0 0.0
2018-Feb-16 06:30N 51°28' E 003°40'0 0.8
2018-Feb-16 06:00N 51°27' E 003°40'0 0.1
2018-Feb-16 05:30N 51°27' E 003°40'1 1.4
2018-Feb-16 05:00N 51°27' E 003°40'2 3.8
2018-Feb-16 04:31N 51°26' E 003°37'3 5.3
2018-Feb-16 04:00N 51°27' E 003°41'1 2.4
2018-Feb-16 03:30N 51°27' E 003°43'1 1.3
2018-Feb-16 02:56N 51°27' E 003°42'1 1.7
2018-Feb-16 02:30N 51°27' E 003°40'2 4.5
2018-Feb-16 01:58N 51°26' E 003°37'3 5.4
2018-Feb-16 01:30N 51°28' E 003°40'0 0.0
2018-Feb-16 01:00N 51°28' E 003°40'0 0.0
2018-Feb-16 00:29N 51°28' E 003°40'0 0.0
2018-Feb-16 00:00N 51°28' E 003°40'0 0.1
2018-Feb-15 23:30N 51°28' E 003°40'0 0.1
2018-Feb-15 23:00N 51°28' E 003°40'0 0.0
2018-Feb-15 22:30N 51°28' E 003°40'0 0.1
2018-Feb-15 22:00N 51°28' E 003°40'0 0.1
2018-Feb-15 21:30N 51°28' E 003°40'0 0.0
2018-Feb-15 21:00N 51°28' E 003°40'0 0.0
2018-Feb-15 20:30N 51°28' E 003°40'0 0.0
2018-Feb-15 20:01N 51°28' E 003°40'1 2.2
2018-Feb-15 19:30N 51°28' E 003°42'1 1.1
2018-Feb-15 19:01N 51°28' E 003°43'1 2.9
2018-Feb-15 18:30N 51°28' E 003°40'0 0.0
2018-Feb-15 18:01N 51°28' E 003°40'3 6.1
2018-Feb-15 17:31N 51°25' E 003°43'611.4
2018-Feb-15 17:00N 51°21' E 003°49'0 0.8
2018-Feb-15 16:30N 51°20' E 003°49'0 0.0
2018-Feb-15 16:00N 51°20' E 003°49'0 0.0
2018-Feb-15 15:31N 51°20' E 003°49'0 0.0
2018-Feb-15 15:01N 51°20' E 003°49'0 0.0
2018-Feb-15 14:30N 51°20' E 003°49'0 0.0
2018-Feb-15 14:00N 51°20' E 003°49'0 0.0
2018-Feb-15 13:30N 51°20' E 003°49'0 0.0
2018-Feb-15 13:00N 51°20' E 003°49'0 0.0
2018-Feb-15 12:30N 51°20' E 003°49'0 0.0
2018-Feb-15 12:01N 51°20' E 003°49'0 0.0
2018-Feb-15 11:31N 51°20' E 003°49'0 0.0
2018-Feb-15 11:01N 51°20' E 003°49'0 0.0
2018-Feb-15 10:31N 51°20' E 003°49'0 0.0
2018-Feb-15 10:01N 51°20' E 003°49'0 0.0
2018-Feb-15 09:31N 51°20' E 003°49'0 0.0
2018-Feb-15 09:01N 51°20' E 003°49'0 0.0
2018-Feb-15 08:31N 51°20' E 003°49'0 0.0
2018-Feb-15 08:00N 51°20' E 003°49'0 0.0
2018-Feb-15 07:30N 51°20' E 003°49'0 0.0
2018-Feb-15 07:01N 51°20' E 003°49'0 0.0
2018-Feb-15 06:31N 51°20' E 003°49'0 0.0
2018-Feb-15 06:00N 51°20' E 003°49'0 0.0
2018-Feb-15 05:31N 51°20' E 003°49'0 0.0
2018-Feb-15 05:00N 51°20' E 003°49'0 0.0
2018-Feb-15 04:31N 51°20' E 003°49'0 0.0
2018-Feb-15 04:01N 51°20' E 003°49'0 0.0
2018-Feb-15 03:31N 51°20' E 003°49'2 3.8
2018-Feb-15 03:01N 51°20' E 003°46'0 0.1
2018-Feb-15 02:31N 51°21' E 003°46'1 2.2
2018-Feb-15 02:00N 51°22' E 003°46'0 0.9
2018-Feb-15 01:30N 51°22' E 003°45'3 6.0
2018-Feb-15 01:01N 51°20' E 003°49'0 0.0
2018-Feb-15 00:30N 51°20' E 003°49'0 0.0
2018-Feb-15 00:01N 51°20' E 003°49'0 0.0
2018-Feb-14 23:31N 51°20' E 003°49'0 0.0
2018-Feb-14 23:00N 51°20' E 003°49'0 0.0
2018-Feb-14 22:31N 51°20' E 003°49'1 1.0
2018-Feb-14 22:00N 51°20' E 003°49'0 0.4
2018-Feb-14 21:31N 51°20' E 003°49'0 0.0
2018-Feb-14 21:01N 51°20' E 003°49'0 0.0
2018-Feb-14 20:31N 51°20' E 003°49'1 1.1
2018-Feb-14 20:00N 51°19' E 003°50'4 7.7
2018-Feb-14 19:30N 51°15' E 003°50'4 8.1
2018-Feb-14 19:01N 51°11' E 003°48'4 7.8
2018-Feb-14 18:30N 51°08' E 003°46'0 0.5
2018-Feb-14 18:01N 51°08' E 003°46'3 5.6
2018-Feb-14 17:30N 51°10' E 003°48'0 0.0
2018-Feb-14 17:00N 51°10' E 003°48'2 3.2
2018-Feb-14 16:30N 51°12' E 003°48'2 4.6
2018-Feb-14 16:00N 51°14' E 003°49'1 3.0
2018-Feb-14 15:30N 51°16' E 003°50'2 4.6
2018-Feb-14 15:01N 51°18' E 003°50'1 2.5
2018-Feb-14 14:30N 51°19' E 003°50'1 1.2
2018-Feb-14 14:00N 51°20' E 003°49'0 0.7
2018-Feb-14 13:30N 51°20' E 003°49'1 2.0
2018-Feb-14 13:00N 51°21' E 003°50'1 2.4
2018-Feb-14 12:30N 51°21' E 003°52'0 0.5
2018-Feb-14 12:00N 51°21' E 003°52'2 3.9
2018-Feb-14 11:29N 51°20' E 003°49'0 0.0
2018-Feb-14 11:00N 51°20' E 003°49'0 0.0
2018-Feb-14 10:30N 51°20' E 003°49'5 9.3
2018-Feb-14 10:00N 51°23' E 003°43'5 9.1
2018-Feb-14 09:29N 51°28' E 003°40'0 0.1
2018-Feb-14 09:00N 51°28' E 003°40'0 0.0
2018-Feb-14 08:30N 51°28' E 003°40'0 0.0
2018-Feb-14 07:41N 51°28' E 003°40'0 0.2
2018-Feb-14 07:30N 51°28' E 003°40'0 0.1
2018-Feb-14 06:55N 51°28' E 003°40'0 0.0
2018-Feb-14 00:29N 51°28' E 003°40'0 0.0
2018-Feb-13 23:57N 51°28' E 003°40'0 0.7
2018-Feb-13 23:29N 51°27' E 003°41'1 2.8
2018-Feb-13 22:57N 51°29' E 003°42'2 3.4
2018-Feb-13 22:30N 51°28' E 003°40'0 0.0
2018-Feb-13 21:54N 51°28' E 003°40'0 0.0
2018-Feb-13 21:26N 51°28' E 003°40'0 0.1
2018-Feb-13 20:58N 51°28' E 003°40'0 0.1
2018-Feb-13 20:30N 51°28' E 003°40'0 0.1
2018-Feb-13 19:55N 51°28' E 003°40'0 0.0
2018-Feb-13 18:53N 51°28' E 003°40'0 0.0
2018-Feb-13 17:02N 51°28' E 003°40'0 0.3
2018-Feb-13 16:59N 51°28' E 003°40'0 0.6
2018-Feb-13 16:17N 51°28' E 003°41'1 3.2
2018-Feb-13 15:58N 51°28' E 003°43'0 0.3
2018-Feb-13 15:30N 51°28' E 003°43'0 0.0
2018-Feb-13 14:57N 51°28' E 003°43'0 0.3
2018-Feb-13 14:29N 51°28' E 003°43'0 0.2
2018-Feb-13 13:58N 51°28' E 003°43'1 1.3
2018-Feb-13 12:49N 51°28' E 003°40'0 0.0
2018-Feb-13 12:30N 51°28' E 003°40'0 0.0
2018-Feb-13 11:55N 51°28' E 003°40'0 0.0
2018-Feb-13 02:18N 51°28' E 003°40'0 0.0
2018-Feb-13 01:54N 51°28' E 003°40'0 0.0
2018-Feb-13 01:29N 51°28' E 003°40'0 0.1
2018-Feb-13 00:58N 51°28' E 003°40'0 0.1
2018-Feb-13 00:29N 51°28' E 003°40'0 0.1
2018-Feb-12 23:57N 51°28' E 003°40'0 0.2
2018-Feb-12 23:30N 51°28' E 003°40'0 0.1
2018-Feb-12 23:00N 51°28' E 003°40'0 0.1
2018-Feb-12 22:30N 51°28' E 003°40'0 0.1
2018-Feb-12 21:54N 51°28' E 003°40'0 0.0
2018-Feb-12 19:30N 51°28' E 003°40'0 0.0
2018-Feb-12 18:51N 51°28' E 003°40'0 0.1
2018-Feb-12 18:29N 51°28' E 003°40'0 0.0
2018-Feb-12 18:00N 51°28' E 003°40'0 0.1
2018-Feb-12 17:29N 51°28' E 003°40'0 0.7
2018-Feb-12 17:00N 51°27' E 003°41'1 2.2
2018-Feb-12 16:29N 51°27' E 003°43'0 0.0
2018-Feb-12 15:51N 51°27' E 003°43'0 0.0
2018-Feb-12 15:26N 51°27' E 003°43'0 0.0
2018-Feb-12 15:00N 51°27' E 003°43'0 0.0
2018-Feb-12 14:01N 51°27' E 003°43'0 0.0
2018-Feb-12 14:00N 51°27' E 003°43'0 0.0
2018-Feb-12 10:26N 51°27' E 003°43'  
Track history (hours):
 
Tides and Currents Weather Stations Pressure Air Temp Water Temp Dewpoint Dewpoint Depression Visibility Wind Speed Wind Dir Waves Ship Positions

Maimiti

Last reported at 2018-Feb-22 07:00 UTC. Time now 2018-Feb-22 07:20 UTC.
Position N 51°27' E 003°43'.

Length 35 m; draft 6.7 m.

Type: Tug. MMSI: 244850959.

Date/timePositionNaut miles runAvg speedWind from/ knotsBaromVisibWave heightAir tempDewpointWater temp
2018-Feb-22 07:00N 51°27' E 003°43'1 2.4
2018-Feb-22 06:30N 51°28' E 003°41'1 1.7
2018-Feb-22 06:00N 51°27' E 003°40'2 3.5
2018-Feb-22 05:30N 51°26' E 003°38'2 3.4
2018-Feb-22 05:00N 51°26' E 003°35'1 1.2
2018-Feb-22 04:30N 51°25' E 003°34'0 0.1
2018-Feb-22 04:00N 51°25' E 003°34'0 0.2
2018-Feb-22 03:30N 51°25' E 003°34'1 2.4
2018-Feb-22 03:00N 51°25' E 003°32'2 4.3
2018-Feb-22 02:30N 51°25' E 003°29'2 4.2
2018-Feb-22 02:00N 51°25' E 003°26'2 3.9
2018-Feb-22 01:30N 51°24' E 003°23'2 4.1
2018-Feb-22 01:00N 51°24' E 003°19'2 4.2
2018-Feb-22 00:30N 51°24' E 003°16'2 3.6
2018-Feb-22 00:00N 51°24' E 003°13'1 2.9
2018-Feb-21 23:30N 51°24' E 003°11'1 2.6
2018-Feb-21 23:00N 51°24' E 003°09'1 2.6
2018-Feb-21 22:31N 51°24' E 003°07'1 2.3
2018-Feb-21 22:00N 51°24' E 003°05'1 2.5
2018-Feb-21 21:31N 51°24' E 003°03'1 2.7
2018-Feb-21 21:00N 51°25' E 003°01'1 2.8
2018-Feb-21 20:31N 51°25' E 002°59'1 2.6
2018-Feb-21 19:59N 51°26' E 002°57'1 2.8
2018-Feb-21 19:30N 51°27' E 002°56'2 3.0
2018-Feb-21 18:59N 51°28' E 002°58'1 2.8
2018-Feb-21 18:30N 51°29' E 002°60'1 1.8
2018-Feb-21 18:00N 51°29' E 003°01'4 8.0
2018-Feb-21 17:30N 51°25' E 003°02'5 9.3
2018-Feb-21 17:01N 51°24' E 003°10'5 9.0
2018-Feb-21 16:30N 51°25' E 003°17'9 7.6
2018-Feb-21 15:21N 51°25' E 003°31'2 7.1
2018-Feb-21 15:00N 51°26' E 003°35'4 7.5
2018-Feb-21 14:30N 51°27' E 003°41'0 0.4
2018-Feb-21 13:59N 51°27' E 003°41'0 0.4
2018-Feb-21 13:31N 51°28' E 003°40'0 0.0
2018-Feb-21 13:00N 51°28' E 003°40'0 0.0
2018-Feb-21 12:31N 51°28' E 003°40'0 0.0
2018-Feb-21 12:00N 51°28' E 003°40'0 0.0
2018-Feb-21 11:30N 51°28' E 003°40'0 0.0
2018-Feb-21 11:00N 51°28' E 003°40'0 0.0
2018-Feb-21 10:30N 51°28' E 003°40'0 0.0
2018-Feb-21 10:00N 51°28' E 003°40'0 0.0
2018-Feb-21 09:30N 51°28' E 003°40'0 0.0
2018-Feb-21 09:00N 51°28' E 003°40'0 0.0
2018-Feb-21 08:28N 51°28' E 003°40'0 0.0
2018-Feb-21 08:00N 51°28' E 003°40'0 0.0
2018-Feb-21 07:30N 51°28' E 003°40'0 0.1
2018-Feb-21 07:00N 51°28' E 003°40'0 0.1
2018-Feb-21 06:31N 51°28' E 003°40'0 0.0
2018-Feb-21 06:00N 51°28' E 003°40'0 0.0
2018-Feb-21 05:30N 51°28' E 003°40'0 0.0
2018-Feb-21 05:00N 51°28' E 003°40'0 0.0
2018-Feb-21 04:30N 51°28' E 003°40'0 0.0
2018-Feb-21 04:00N 51°28' E 003°40'0 0.0
2018-Feb-21 03:30N 51°28' E 003°40'0 0.0
2018-Feb-21 03:00N 51°28' E 003°40'0 0.0
2018-Feb-21 02:30N 51°28' E 003°40'0 0.0
2018-Feb-21 02:00N 51°28' E 003°40'1 1.7
2018-Feb-21 01:30N 51°27' E 003°42'1 1.7
2018-Feb-21 01:00N 51°27' E 003°43'1 1.9
2018-Feb-21 00:27N 51°27' E 003°41'1 2.3
2018-Feb-20 23:54N 51°29' E 003°42'2 3.8
2018-Feb-20 23:30N 51°28' E 003°40'0 0.0
2018-Feb-20 23:00N 51°28' E 003°40'0 0.0
2018-Feb-20 22:30N 51°28' E 003°40'0 0.2
2018-Feb-20 22:00N 51°28' E 003°41'0 0.0
2018-Feb-20 21:30N 51°28' E 003°41'0 0.1
2018-Feb-20 21:00N 51°28' E 003°40'1 2.4
2018-Feb-20 20:30N 51°27' E 003°42'1 1.8
2018-Feb-20 20:00N 51°27' E 003°44'1 1.2
2018-Feb-20 19:30N 51°27' E 003°43'0 0.0
2018-Feb-20 18:59N 51°27' E 003°43'0 0.0
2018-Feb-20 18:29N 51°27' E 003°43'0 0.0
2018-Feb-20 17:58N 51°27' E 003°43'0 0.0
2018-Feb-20 17:21N 51°27' E 003°43'1 1.8
2018-Feb-20 17:00N 51°27' E 003°42'1 1.1
2018-Feb-20 16:30N 51°27' E 003°42'1 2.2
2018-Feb-20 16:00N 51°28' E 003°41'0 0.3
2018-Feb-20 15:30N 51°27' E 003°41'0 0.1
2018-Feb-20 15:00N 51°27' E 003°41'0 0.4
2018-Feb-20 14:30N 51°28' E 003°40'0 0.0
2018-Feb-20 13:58N 51°28' E 003°40'0 0.0
2018-Feb-20 13:30N 51°28' E 003°40'0 0.1
2018-Feb-20 13:01N 51°28' E 003°40'0 0.0
2018-Feb-20 12:30N 51°28' E 003°40'0 0.0
2018-Feb-20 11:59N 51°28' E 003°40'3 6.4
2018-Feb-20 11:30N 51°25' E 003°43'1 1.6
2018-Feb-20 11:00N 51°24' E 003°44'2 4.2
2018-Feb-20 10:30N 51°26' E 003°41'2 3.9
2018-Feb-20 10:00N 51°28' E 003°40'0 0.0
2018-Feb-20 09:30N 51°28' E 003°40'0 0.0
2018-Feb-20 09:00N 51°28' E 003°40'0 0.0
2018-Feb-20 08:31N 51°28' E 003°40'0 0.0
2018-Feb-20 08:00N 51°28' E 003°40'0 0.0
2018-Feb-20 07:29N 51°28' E 003°40'0 0.1
2018-Feb-20 07:00N 51°28' E 003°40'0 0.1
2018-Feb-20 06:30N 51°28' E 003°40'0 0.0
2018-Feb-20 06:00N 51°28' E 003°40'0 0.0
2018-Feb-20 05:30N 51°28' E 003°40'0 0.0
2018-Feb-20 05:00N 51°28' E 003°40'0 0.0
2018-Feb-20 04:30N 51°28' E 003°40'0 0.0
2018-Feb-20 04:00N 51°28' E 003°40'0 0.0
2018-Feb-20 03:30N 51°28' E 003°40'0 0.1
2018-Feb-20 03:01N 51°28' E 003°40'0 0.1
2018-Feb-20 02:30N 51°28' E 003°40'0 0.0
2018-Feb-20 02:00N 51°28' E 003°40'0 0.0
2018-Feb-20 01:30N 51°28' E 003°40'0 0.0
2018-Feb-20 01:00N 51°28' E 003°40'0 0.0
2018-Feb-20 00:30N 51°28' E 003°40'0 0.0
2018-Feb-20 00:00N 51°28' E 003°40'0 0.0
2018-Feb-19 23:29N 51°28' E 003°40'0 0.0
2018-Feb-19 22:57N 51°28' E 003°40'0 0.0
2018-Feb-19 22:30N 51°28' E 003°40'1 3.0
2018-Feb-19 22:01N 51°27' E 003°42'1 1.6
2018-Feb-19 21:30N 51°27' E 003°42'3 5.3
2018-Feb-19 21:01N 51°25' E 003°43'5 9.4
2018-Feb-19 20:31N 51°21' E 003°47'3 5.2
2018-Feb-19 20:01N 51°21' E 003°52'2 3.4
2018-Feb-19 19:30N 51°20' E 003°49'0 0.0
2018-Feb-19 18:59N 51°20' E 003°49'0 0.0
2018-Feb-19 18:30N 51°20' E 003°49'0 0.0
2018-Feb-19 18:00N 51°20' E 003°49'0 0.0
2018-Feb-19 17:30N 51°20' E 003°49'0 0.0
2018-Feb-19 17:01N 51°20' E 003°49'0 0.0
2018-Feb-19 16:30N 51°20' E 003°49'0 0.0
2018-Feb-19 16:00N 51°20' E 003°49'0 0.0
2018-Feb-19 15:31N 51°20' E 003°49'0 0.0
2018-Feb-19 15:00N 51°20' E 003°49'0 0.0
2018-Feb-19 14:30N 51°20' E 003°49'0 0.0
2018-Feb-19 14:01N 51°20' E 003°49'0 0.0
2018-Feb-19 13:30N 51°20' E 003°49'0 0.0
2018-Feb-19 13:00N 51°20' E 003°49'0 0.0
2018-Feb-19 12:30N 51°20' E 003°49'0 0.0
2018-Feb-19 12:00N 51°20' E 003°49'0 0.0
2018-Feb-19 11:30N 51°20' E 003°49'0 0.0
2018-Feb-19 11:01N 51°20' E 003°49'0 0.0
2018-Feb-19 10:30N 51°20' E 003°49'0 0.0
2018-Feb-19 10:00N 51°20' E 003°49'0 0.0
2018-Feb-19 09:30N 51°20' E 003°49'0 0.0
2018-Feb-19 09:00N 51°20' E 003°49'0 0.0
2018-Feb-19 08:30N 51°20' E 003°49'0 0.0
2018-Feb-19 08:00N 51°20' E 003°49'0 0.0
2018-Feb-19 07:30N 51°20' E 003°49'0 0.0
2018-Feb-19 07:00N 51°20' E 003°49'0 0.0
2018-Feb-19 06:30N 51°20' E 003°49'0 0.0
2018-Feb-19 06:01N 51°20' E 003°49'0 0.0
2018-Feb-19 05:30N 51°20' E 003°49'0 0.0
2018-Feb-19 05:00N 51°20' E 003°49'0 0.0
2018-Feb-19 04:30N 51°20' E 003°49'0 0.0
2018-Feb-19 04:01N 51°20' E 003°49'1 1.7
2018-Feb-19 03:30N 51°21' E 003°50'1 2.2
2018-Feb-19 02:59N 51°21' E 003°52'0 0.1
2018-Feb-19 02:30N 51°21' E 003°52'0 0.1
2018-Feb-19 02:01N 51°21' E 003°52'0 0.0
2018-Feb-19 01:30N 51°21' E 003°52'0 0.0
2018-Feb-19 01:01N 51°21' E 003°52'0 0.0
2018-Feb-19 00:30N 51°21' E 003°52'0 0.0
2018-Feb-19 00:00N 51°21' E 003°52'0 0.2
2018-Feb-18 23:30N 51°21' E 003°52'0 0.2
2018-Feb-18 23:00N 51°21' E 003°52'0 0.0
2018-Feb-18 22:31N 51°21' E 003°52'0 0.1
2018-Feb-18 22:00N 51°21' E 003°52'0 0.0
2018-Feb-18 21:30N 51°21' E 003°52'0 0.1
2018-Feb-18 21:00N 51°21' E 003°52'0 0.0
2018-Feb-18 20:30N 51°21' E 003°52'0 0.1
2018-Feb-18 20:00N 51°21' E 003°52'0 0.2
2018-Feb-18 19:30N 51°21' E 003°52'0 0.1
2018-Feb-18 19:00N 51°21' E 003°52'3 5.5
2018-Feb-18 18:31N 51°21' E 003°47'4 7.7
2018-Feb-18 17:58N 51°24' E 003°43'4 5.3
2018-Feb-18 17:17N 51°27' E 003°41'1 4.9
2018-Feb-18 17:00N 51°27' E 003°42'0 0.4
2018-Feb-18 16:29N 51°27' E 003°42'1 1.4
2018-Feb-18 15:46N 51°28' E 003°41'1 2.8
2018-Feb-18 15:30N 51°27' E 003°40'0 0.2
2018-Feb-18 14:48N 51°27' E 003°40'1 4.1
2018-Feb-18 14:30N 51°28' E 003°42'1 2.7
2018-Feb-18 13:58N 51°27' E 003°40'4 8.0
2018-Feb-18 13:30N 51°24' E 003°43'4 8.9
2018-Feb-18 13:00N 51°21' E 003°49'1 2.6
2018-Feb-18 12:30N 51°20' E 003°49'2 3.2
2018-Feb-18 12:00N 51°18' E 003°50'3 6.1
2018-Feb-18 11:30N 51°15' E 003°49'4 6.2
2018-Feb-18 10:49N 51°11' E 003°48'2 6.5
2018-Feb-18 10:30N 51°09' E 003°47'0 0.3
2018-Feb-18 09:54N 51°09' E 003°47'0 0.0
2018-Feb-18 09:10N 51°09' E 003°47'0 0.0
2018-Feb-18 08:56N 51°09' E 003°47'0 0.0
2018-Feb-18 08:25N 51°09' E 003°47'0 0.0
2018-Feb-18 07:56N 51°09' E 003°47'0 0.0
2018-Feb-18 05:40N 51°09' E 003°47'0 0.0
2018-Feb-18 05:30N 51°09' E 003°47'0 0.0
2018-Feb-18 03:09N 51°09' E 003°47'0 0.5
2018-Feb-18 03:00N 51°09' E 003°47'1 1.9
2018-Feb-18 02:27N 51°10' E 003°48'3 5.8
2018-Feb-18 01:59N 51°13' E 003°48'3 6.2
2018-Feb-18 01:30N 51°16' E 003°50'3 5.8
2018-Feb-18 01:00N 51°19' E 003°50'1 2.6
2018-Feb-18 00:30N 51°20' E 003°49'0 0.9
2018-Feb-18 00:00N 51°20' E 003°49'2 3.6
2018-Feb-17 23:30N 51°21' E 003°47'2 3.3
2018-Feb-17 23:00N 51°21' E 003°49'0 0.6
2018-Feb-17 22:30N 51°20' E 003°49'0 0.0
2018-Feb-17 22:00N 51°20' E 003°49'0 0.0
2018-Feb-17 21:30N 51°20' E 003°49'0 0.0
2018-Feb-17 21:00N 51°20' E 003°49'0 0.0
2018-Feb-17 20:30N 51°20' E 003°49'0 0.0
2018-Feb-17 20:00N 51°20' E 003°49'0 0.0
2018-Feb-17 19:30N 51°20' E 003°49'0 0.0
2018-Feb-17 19:00N 51°20' E 003°49'0 0.0
2018-Feb-17 18:30N 51°20' E 003°49'0 0.0
2018-Feb-17 18:00N 51°20' E 003°49'0 0.0
2018-Feb-17 17:30N 51°20' E 003°49'0 0.0
2018-Feb-17 17:00N 51°20' E 003°49'0 0.0
2018-Feb-17 16:30N 51°20' E 003°49'0 0.0
2018-Feb-17 16:00N 51°20' E 003°49'2 3.9
2018-Feb-17 15:30N 51°20' E 003°46'0 0.3
2018-Feb-17 15:00N 51°21' E 003°46'2 3.3
2018-Feb-17 14:29N 51°22' E 003°44'3 7.1
2018-Feb-17 14:00N 51°20' E 003°49'0 0.0
2018-Feb-17 13:30N 51°20' E 003°49'0 0.0
2018-Feb-17 13:00N 51°20' E 003°49'0 0.0
2018-Feb-17 12:30N 51°20' E 003°49'0 0.0
2018-Feb-17 12:00N 51°20' E 003°49'0 0.0
2018-Feb-17 11:30N 51°20' E 003°49'0 0.0
2018-Feb-17 11:00N 51°20' E 003°49'0 0.0
2018-Feb-17 10:30N 51°20' E 003°49'0 0.3
2018-Feb-17 10:00N 51°20' E 003°49'1 1.1
2018-Feb-17 09:30N 51°20' E 003°49'1 2.0
2018-Feb-17 09:00N 51°19' E 003°50'3 6.2
2018-Feb-17 08:30N 51°16' E 003°50'3 6.8
2018-Feb-17 08:00N 51°12' E 003°48'3 5.6
2018-Feb-17 07:31N 51°10' E 003°47'1 1.8
2018-Feb-17 07:00N 51°11' E 003°48'2 3.4
2018-Feb-17 06:30N 51°12' E 003°48'4 7.6
2018-Feb-17 06:01N 51°16' E 003°50'4 7.5
2018-Feb-17 05:31N 51°20' E 003°49'1 1.5
2018-Feb-17 05:00N 51°20' E 003°49'0 0.0
2018-Feb-17 04:30N 51°20' E 003°49'0 0.0
2018-Feb-17 04:00N 51°20' E 003°49'0 0.0
2018-Feb-17 03:31N 51°20' E 003°49'0 0.0
2018-Feb-17 03:01N 51°20' E 003°49'0 0.0
2018-Feb-17 02:31N 51°20' E 003°49'0 0.0
2018-Feb-17 02:01N 51°20' E 003°49'0 0.0
2018-Feb-17 01:30N 51°20' E 003°49'0 0.0
2018-Feb-17 01:00N 51°20' E 003°49'0 0.0
2018-Feb-17 00:31N 51°20' E 003°49'0 0.0
2018-Feb-17 00:01N 51°20' E 003°49'0 0.0
2018-Feb-16 23:31N 51°20' E 003°49'0 0.0
2018-Feb-16 23:00N 51°20' E 003°49'0 0.0
2018-Feb-16 22:31N 51°20' E 003°49'0 0.0
2018-Feb-16 22:01N 51°20' E 003°49'0 0.0
2018-Feb-16 21:30N 51°20' E 003°49'0 0.0
2018-Feb-16 21:00N 51°20' E 003°49'0 0.0
2018-Feb-16 20:31N 51°20' E 003°49'0 0.0
2018-Feb-16 20:00N 51°20' E 003°49'0 0.0
2018-Feb-16 19:30N 51°20' E 003°49'0 0.0
2018-Feb-16 19:00N 51°20' E 003°49'0 0.0
2018-Feb-16 18:31N 51°20' E 003°49'2 3.1
2018-Feb-16 18:01N 51°21' E 003°47'2 4.8
2018-Feb-16 17:31N 51°22' E 003°44'3 5.5
2018-Feb-16 16:59N 51°25' E 003°42'3 5.4
2018-Feb-16 16:29N 51°28' E 003°40'0 0.1
2018-Feb-16 16:00N 51°28' E 003°40'0 0.0
2018-Feb-16 15:30N 51°28' E 003°40'0 0.0
2018-Feb-16 15:00N 51°28' E 003°40'0 0.1
2018-Feb-16 14:30N 51°28' E 003°40'0 0.1
2018-Feb-16 14:00N 51°28' E 003°40'0 0.0
2018-Feb-16 13:30N 51°28' E 003°40'0 0.0
2018-Feb-16 13:00N 51°28' E 003°40'0 0.0
2018-Feb-16 12:31N 51°28' E 003°40'0 0.0
2018-Feb-16 12:00N 51°28' E 003°40'0 0.0
2018-Feb-16 11:30N 51°28' E 003°40'0 0.0
2018-Feb-16 11:00N 51°28' E 003°40'0 0.0
2018-Feb-16 10:20N 51°28' E 003°40'0 0.0
2018-Feb-16 09:53N 51°28' E 003°40'0 0.0
2018-Feb-16 09:31N 51°28' E 003°40'0 0.1
2018-Feb-16 09:00N 51°28' E 003°40'0 0.0
2018-Feb-16 08:30N 51°28' E 003°40'0 0.0
2018-Feb-16 07:59N 51°28' E 003°40'0 0.0
2018-Feb-16 07:29N 51°28' E 003°40'0 0.0
2018-Feb-16 07:01N 51°28' E 003°40'0 0.0
2018-Feb-16 06:30N 51°28' E 003°40'0 0.8
2018-Feb-16 06:00N 51°27' E 003°40'0 0.1
2018-Feb-16 05:30N 51°27' E 003°40'1 1.4
2018-Feb-16 05:00N 51°27' E 003°40'2 3.8
2018-Feb-16 04:31N 51°26' E 003°37'3 5.3
2018-Feb-16 04:00N 51°27' E 003°41'1 2.4
2018-Feb-16 03:30N 51°27' E 003°43'1 1.3
2018-Feb-16 02:56N 51°27' E 003°42'1 1.7
2018-Feb-16 02:30N 51°27' E 003°40'2 4.5
2018-Feb-16 01:58N 51°26' E 003°37'3 5.4
2018-Feb-16 01:30N 51°28' E 003°40'0 0.0
2018-Feb-16 01:00N 51°28' E 003°40'0 0.0
2018-Feb-16 00:29N 51°28' E 003°40'0 0.0
2018-Feb-16 00:00N 51°28' E 003°40'0 0.1
2018-Feb-15 23:30N 51°28' E 003°40'0 0.1
2018-Feb-15 23:00N 51°28' E 003°40'0 0.0
2018-Feb-15 22:30N 51°28' E 003°40'0 0.1
2018-Feb-15 22:00N 51°28' E 003°40'0 0.1
2018-Feb-15 21:30N 51°28' E 003°40'0 0.0
2018-Feb-15 21:00N 51°28' E 003°40'0 0.0
2018-Feb-15 20:30N 51°28' E 003°40'0 0.0
2018-Feb-15 20:01N 51°28' E 003°40'1 2.2
2018-Feb-15 19:30N 51°28' E 003°42'1 1.1
2018-Feb-15 19:01N 51°28' E 003°43'1 2.9
2018-Feb-15 18:30N 51°28' E 003°40'0 0.0
2018-Feb-15 18:01N 51°28' E 003°40'3 6.1
2018-Feb-15 17:31N 51°25' E 003°43'611.4
2018-Feb-15 17:00N 51°21' E 003°49'0 0.8
2018-Feb-15 16:30N 51°20' E 003°49'0 0.0
2018-Feb-15 16:00N 51°20' E 003°49'0 0.0
2018-Feb-15 15:31N 51°20' E 003°49'0 0.0
2018-Feb-15 15:01N 51°20' E 003°49'0 0.0
2018-Feb-15 14:30N 51°20' E 003°49'0 0.0
2018-Feb-15 14:00N 51°20' E 003°49'0 0.0
2018-Feb-15 13:30N 51°20' E 003°49'0 0.0
2018-Feb-15 13:00N 51°20' E 003°49'0 0.0
2018-Feb-15 12:30N 51°20' E 003°49'0 0.0
2018-Feb-15 12:01N 51°20' E 003°49'0 0.0
2018-Feb-15 11:31N 51°20' E 003°49'0 0.0
2018-Feb-15 11:01N 51°20' E 003°49'0 0.0
2018-Feb-15 10:31N 51°20' E 003°49'0 0.0
2018-Feb-15 10:01N 51°20' E 003°49'0 0.0
2018-Feb-15 09:31N 51°20' E 003°49'0 0.0
2018-Feb-15 09:01N 51°20' E 003°49'0 0.0
2018-Feb-15 08:31N 51°20' E 003°49'0 0.0
2018-Feb-15 08:00N 51°20' E 003°49'0 0.0
2018-Feb-15 07:30N 51°20' E 003°49'0 0.0
2018-Feb-15 07:01N 51°20' E 003°49'0 0.0
2018-Feb-15 06:31N 51°20' E 003°49'0 0.0
2018-Feb-15 06:00N 51°20' E 003°49'0 0.0
2018-Feb-15 05:31N 51°20' E 003°49'0 0.0
2018-Feb-15 05:00N 51°20' E 003°49'0 0.0
2018-Feb-15 04:31N 51°20' E 003°49'0 0.0
2018-Feb-15 04:01N 51°20' E 003°49'0 0.0
2018-Feb-15 03:31N 51°20' E 003°49'2 3.8
2018-Feb-15 03:01N 51°20' E 003°46'0 0.1
2018-Feb-15 02:31N 51°21' E 003°46'1 2.2
2018-Feb-15 02:00N 51°22' E 003°46'0 0.9
2018-Feb-15 01:30N 51°22' E 003°45'3 6.0
2018-Feb-15 01:01N 51°20' E 003°49'0 0.0
2018-Feb-15 00:30N 51°20' E 003°49'0 0.0
2018-Feb-15 00:01N 51°20' E 003°49'0 0.0
2018-Feb-14 23:31N 51°20' E 003°49'0 0.0
2018-Feb-14 23:00N 51°20' E 003°49'0 0.0
2018-Feb-14 22:31N 51°20' E 003°49'1 1.0
2018-Feb-14 22:00N 51°20' E 003°49'0 0.4
2018-Feb-14 21:31N 51°20' E 003°49'0 0.0
2018-Feb-14 21:01N 51°20' E 003°49'0 0.0
2018-Feb-14 20:31N 51°20' E 003°49'1 1.1
2018-Feb-14 20:00N 51°19' E 003°50'4 7.7
2018-Feb-14 19:30N 51°15' E 003°50'4 8.1
2018-Feb-14 19:01N 51°11' E 003°48'4 7.8
2018-Feb-14 18:30N 51°08' E 003°46'0 0.5
2018-Feb-14 18:01N 51°08' E 003°46'3 5.6
2018-Feb-14 17:30N 51°10' E 003°48'0 0.0
2018-Feb-14 17:00N 51°10' E 003°48'2 3.2
2018-Feb-14 16:30N 51°12' E 003°48'2 4.6
2018-Feb-14 16:00N 51°14' E 003°49'1 3.0
2018-Feb-14 15:30N 51°16' E 003°50'2 4.6
2018-Feb-14 15:01N 51°18' E 003°50'1 2.5
2018-Feb-14 14:30N 51°19' E 003°50'1 1.2
2018-Feb-14 14:00N 51°20' E 003°49'0 0.7
2018-Feb-14 13:30N 51°20' E 003°49'1 2.0
2018-Feb-14 13:00N 51°21' E 003°50'1 2.4
2018-Feb-14 12:30N 51°21' E 003°52'0 0.5
2018-Feb-14 12:00N 51°21' E 003°52'2 3.9
2018-Feb-14 11:29N 51°20' E 003°49'0 0.0
2018-Feb-14 11:00N 51°20' E 003°49'0 0.0
2018-Feb-14 10:30N 51°20' E 003°49'5 9.3
2018-Feb-14 10:00N 51°23' E 003°43'5 9.1
2018-Feb-14 09:29N 51°28' E 003°40'0 0.1
2018-Feb-14 09:00N 51°28' E 003°40'0 0.0
2018-Feb-14 08:30N 51°28' E 003°40'0 0.0
2018-Feb-14 07:41N 51°28' E 003°40'0 0.2
2018-Feb-14 07:30N 51°28' E 003°40'0 0.1
2018-Feb-14 06:55N 51°28' E 003°40'0 0.0
2018-Feb-14 00:29N 51°28' E 003°40'0 0.0
2018-Feb-13 23:57N 51°28' E 003°40'0 0.7
2018-Feb-13 23:29N 51°27' E 003°41'1 2.8
2018-Feb-13 22:57N 51°29' E 003°42'2 3.4
2018-Feb-13 22:30N 51°28' E 003°40'0 0.0
2018-Feb-13 21:54N 51°28' E 003°40'0 0.0
2018-Feb-13 21:26N 51°28' E 003°40'0 0.1
2018-Feb-13 20:58N 51°28' E 003°40'0 0.1
2018-Feb-13 20:30N 51°28' E 003°40'0 0.1
2018-Feb-13 19:55N 51°28' E 003°40'0 0.0
2018-Feb-13 18:53N 51°28' E 003°40'0 0.0
2018-Feb-13 17:02N 51°28' E 003°40'0 0.3
2018-Feb-13 16:59N 51°28' E 003°40'0 0.6
2018-Feb-13 16:17N 51°28' E 003°41'1 3.2
2018-Feb-13 15:58N 51°28' E 003°43'0 0.3
2018-Feb-13 15:30N 51°28' E 003°43'0 0.0
2018-Feb-13 14:57N 51°28' E 003°43'0 0.3
2018-Feb-13 14:29N 51°28' E 003°43'0 0.2
2018-Feb-13 13:58N 51°28' E 003°43'1 1.3
2018-Feb-13 12:49N 51°28' E 003°40'0 0.0
2018-Feb-13 12:30N 51°28' E 003°40'0 0.0
2018-Feb-13 11:55N 51°28' E 003°40'0 0.0
2018-Feb-13 02:18N 51°28' E 003°40'0 0.0
2018-Feb-13 01:54N 51°28' E 003°40'0 0.0
2018-Feb-13 01:29N 51°28' E 003°40'0 0.1
2018-Feb-13 00:58N 51°28' E 003°40'0 0.1
2018-Feb-13 00:29N 51°28' E 003°40'0 0.1
2018-Feb-12 23:57N 51°28' E 003°40'0 0.2
2018-Feb-12 23:30N 51°28' E 003°40'0 0.1
2018-Feb-12 23:00N 51°28' E 003°40'0 0.1
2018-Feb-12 22:30N 51°28' E 003°40'0 0.1
2018-Feb-12 21:54N 51°28' E 003°40'0 0.0
2018-Feb-12 19:30N 51°28' E 003°40'0 0.0
2018-Feb-12 18:51N 51°28' E 003°40'0 0.1
2018-Feb-12 18:29N 51°28' E 003°40'0 0.0
2018-Feb-12 18:00N 51°28' E 003°40'0 0.1
2018-Feb-12 17:29N 51°28' E 003°40'0 0.7
2018-Feb-12 17:00N 51°27' E 003°41'1 2.2
2018-Feb-12 16:29N 51°27' E 003°43'0 0.0
2018-Feb-12 15:51N 51°27' E 003°43'0 0.0
2018-Feb-12 15:26N 51°27' E 003°43'0 0.0
2018-Feb-12 15:00N 51°27' E 003°43'0 0.0
2018-Feb-12 14:01N 51°27' E 003°43'0 0.0
2018-Feb-12 14:00N 51°27' E 003°43'0 0.0
2018-Feb-12 10:26N 51°27' E 003°43'  

Dump ship's entire track history